Aviation Digital Data Service (ADDS)

Output produced by METARs form (1312 UTC 24 May 2019)
found at http://www.aviationweather.gov/metar/data/
 
KLAS 241120Z 2412/2518 VRB05KT P6SM BKN080 
     FM241900 08007KT P6SM SCT080 BKN110 
     FM250200 20007KT P6SM FEW080 SCT110